sensor_id;sensor_type;location;lat;lon;timestamp;P1;durP1;ratioP1;P2;durP2;ratioP2
85087;SDS011;75429;48.374;11.934;2024-01-15T00:00:41;19.15;;;8.45;;
85087;SDS011;75429;48.374;11.934;2024-01-15T00:02:42;18.23;;;8.30;;
85087;SDS011;75429;48.374;11.934;2024-01-15T00:04:42;21.20;;;8.02;;
85087;SDS011;75429;48.374;11.934;2024-01-15T00:06:42;21.27;;;7.68;;
85087;SDS011;75429;48.374;11.934;2024-01-15T00:08:43;17.77;;;7.35;;
85087;SDS011;75429;48.374;11.934;2024-01-15T00:10:43;18.02;;;8.10;;
85087;SDS011;75429;48.374;11.934;2024-01-15T00:12:44;21.67;;;10.10;;
85087;SDS011;75429;48.374;11.934;2024-01-15T00:14:44;16.95;;;9.02;;
85087;SDS011;75429;48.374;11.934;2024-01-15T00:16:44;17.20;;;8.05;;
85087;SDS011;75429;48.374;11.934;2024-01-15T00:18:45;18.58;;;7.90;;
85087;SDS011;75429;48.374;11.934;2024-01-15T00:20:45;13.75;;;6.15;;
85087;SDS011;75429;48.374;11.934;2024-01-15T00:22:45;17.40;;;6.97;;
85087;SDS011;75429;48.374;11.934;2024-01-15T00:24:46;17.80;;;7.60;;
85087;SDS011;75429;48.374;11.934;2024-01-15T00:26:46;12.98;;;6.18;;
85087;SDS011;75429;48.374;11.934;2024-01-15T00:28:46;14.18;;;6.72;;
85087;SDS011;75429;48.374;11.934;2024-01-15T00:30:47;13.60;;;6.72;;
85087;SDS011;75429;48.374;11.934;2024-01-15T00:32:47;15.23;;;7.13;;
85087;SDS011;75429;48.374;11.934;2024-01-15T00:34:48;16.80;;;6.53;;
85087;SDS011;75429;48.374;11.934;2024-01-15T00:36:48;9.82;;;5.85;;
85087;SDS011;75429;48.374;11.934;2024-01-15T00:38:48;14.40;;;7.35;;
85087;SDS011;75429;48.374;11.934;2024-01-15T00:40:49;12.02;;;5.68;;
85087;SDS011;75429;48.374;11.934;2024-01-15T00:42:49;13.02;;;6.25;;
85087;SDS011;75429;48.374;11.934;2024-01-15T00:44:49;11.82;;;6.55;;
85087;SDS011;75429;48.374;11.934;2024-01-15T00:46:50;12.02;;;5.90;;
85087;SDS011;75429;48.374;11.934;2024-01-15T00:48:50;11.68;;;5.53;;
85087;SDS011;75429;48.374;11.934;2024-01-15T00:50:51;11.48;;;6.20;;
85087;SDS011;75429;48.374;11.934;2024-01-15T00:52:51;10.93;;;5.03;;
85087;SDS011;75429;48.374;11.934;2024-01-15T00:54:51;12.52;;;6.05;;
85087;SDS011;75429;48.374;11.934;2024-01-15T00:56:52;12.82;;;5.60;;
85087;SDS011;75429;48.374;11.934;2024-01-15T00:58:52;13.25;;;5.38;;
85087;SDS011;75429;48.374;11.934;2024-01-15T01:00:52;12.52;;;5.72;;
85087;SDS011;75429;48.374;11.934;2024-01-15T01:02:53;17.75;;;6.07;;
85087;SDS011;75429;48.374;11.934;2024-01-15T01:04:53;11.63;;;5.72;;
85087;SDS011;75429;48.374;11.934;2024-01-15T01:06:54;12.57;;;5.32;;
85087;SDS011;75429;48.374;11.934;2024-01-15T01:08:54;13.18;;;6.28;;
85087;SDS011;75429;48.374;11.934;2024-01-15T01:10:55;17.60;;;6.40;;
85087;SDS011;75429;48.374;11.934;2024-01-15T01:12:55;12.60;;;5.57;;
85087;SDS011;75429;48.374;11.934;2024-01-15T01:14:56;13.98;;;5.38;;
85087;SDS011;75429;48.374;11.934;2024-01-15T01:16:56;13.52;;;6.38;;
85087;SDS011;75429;48.374;11.934;2024-01-15T01:18:57;13.88;;;5.68;;
85087;SDS011;75429;48.374;11.934;2024-01-15T01:20:57;10.43;;;5.63;;
85087;SDS011;75429;48.374;11.934;2024-01-15T01:22:57;8.63;;;4.07;;
85087;SDS011;75429;48.374;11.934;2024-01-15T01:24:58;11.30;;;5.10;;
85087;SDS011;75429;48.374;11.934;2024-01-15T01:26:58;12.75;;;4.60;;
85087;SDS011;75429;48.374;11.934;2024-01-15T01:28:58;7.80;;;3.75;;
85087;SDS011;75429;48.374;11.934;2024-01-15T01:30:59;13.23;;;5.90;;
85087;SDS011;75429;48.374;11.934;2024-01-15T01:33:00;12.48;;;6.13;;
85087;SDS011;75429;48.374;11.934;2024-01-15T01:35:00;13.25;;;5.57;;
85087;SDS011;75429;48.374;11.934;2024-01-15T01:37:00;15.88;;;5.55;;
85087;SDS011;75429;48.374;11.934;2024-01-15T01:39:01;11.02;;;4.97;;
85087;SDS011;75429;48.374;11.934;2024-01-15T01:41:02;11.75;;;5.75;;
85087;SDS011;75429;48.374;11.934;2024-01-15T01:43:03;13.18;;;5.72;;
85087;SDS011;75429;48.374;11.934;2024-01-15T01:45:04;16.10;;;5.57;;
85087;SDS011;75429;48.374;11.934;2024-01-15T01:47:05;10.45;;;5.20;;
85087;SDS011;75429;48.374;11.934;2024-01-15T01:49:06;15.40;;;5.95;;
85087;SDS011;75429;48.374;11.934;2024-01-15T01:51:07;11.98;;;5.32;;
85087;SDS011;75429;48.374;11.934;2024-01-15T01:53:08;10.57;;;4.68;;
85087;SDS011;75429;48.374;11.934;2024-01-15T01:55:09;10.43;;;5.78;;
85087;SDS011;75429;48.374;11.934;2024-01-15T01:57:10;14.60;;;6.15;;
85087;SDS011;75429;48.374;11.934;2024-01-15T01:59:12;12.98;;;6.53;;
85087;SDS011;75429;48.374;11.934;2024-01-15T02:01:13;10.80;;;5.97;;
85087;SDS011;75429;48.374;11.934;2024-01-15T02:03:13;18.73;;;5.00;;
85087;SDS011;75429;48.374;11.934;2024-01-15T02:05:14;12.80;;;6.32;;
85087;SDS011;75429;48.374;11.934;2024-01-15T02:07:18;10.35;;;5.90;;
85087;SDS011;75429;48.374;11.934;2024-01-15T02:09:18;14.18;;;5.45;;
85087;SDS011;75429;48.374;11.934;2024-01-15T02:11:19;14.55;;;5.65;;
85087;SDS011;75429;48.374;11.934;2024-01-15T02:13:20;14.68;;;5.93;;
85087;SDS011;75429;48.374;11.934;2024-01-15T02:15:20;13.77;;;6.35;;
85087;SDS011;75429;48.374;11.934;2024-01-15T02:17:20;14.30;;;6.00;;
85087;SDS011;75429;48.374;11.934;2024-01-15T02:19:21;13.77;;;6.57;;
85087;SDS011;75429;48.374;11.934;2024-01-15T02:21:21;9.95;;;5.13;;
85087;SDS011;75429;48.374;11.934;2024-01-15T02:23:22;15.57;;;6.93;;
85087;SDS011;75429;48.374;11.934;2024-01-15T02:25:22;15.43;;;6.07;;
85087;SDS011;75429;48.374;11.934;2024-01-15T02:27:22;15.38;;;5.88;;
85087;SDS011;75429;48.374;11.934;2024-01-15T02:29:23;11.70;;;5.78;;
85087;SDS011;75429;48.374;11.934;2024-01-15T02:31:23;12.48;;;5.60;;
85087;SDS011;75429;48.374;11.934;2024-01-15T02:33:23;13.00;;;6.15;;
85087;SDS011;75429;48.374;11.934;2024-01-15T02:35:24;10.48;;;4.53;;
85087;SDS011;75429;48.374;11.934;2024-01-15T02:37:24;13.07;;;6.40;;
85087;SDS011;75429;48.374;11.934;2024-01-15T02:39:24;18.25;;;7.40;;
85087;SDS011;75429;48.374;11.934;2024-01-15T02:41:25;15.30;;;6.63;;
85087;SDS011;75429;48.374;11.934;2024-01-15T02:43:25;10.52;;;5.95;;
85087;SDS011;75429;48.374;11.934;2024-01-15T02:45:26;10.23;;;5.40;;
85087;SDS011;75429;48.374;11.934;2024-01-15T02:47:26;12.43;;;6.13;;
85087;SDS011;75429;48.374;11.934;2024-01-15T02:49:27;16.55;;;6.03;;
85087;SDS011;75429;48.374;11.934;2024-01-15T02:51:27;13.57;;;6.28;;
85087;SDS011;75429;48.374;11.934;2024-01-15T02:53:27;14.98;;;6.45;;
85087;SDS011;75429;48.374;11.934;2024-01-15T02:55:28;12.07;;;5.55;;
85087;SDS011;75429;48.374;11.934;2024-01-15T02:57:29;9.80;;;4.70;;
85087;SDS011;75429;48.374;11.934;2024-01-15T02:59:29;11.63;;;6.20;;
85087;SDS011;75429;48.374;11.934;2024-01-15T03:01:30;14.80;;;5.90;;
85087;SDS011;75429;48.374;11.934;2024-01-15T03:03:30;10.98;;;5.60;;
85087;SDS011;75429;48.374;11.934;2024-01-15T03:05:30;11.77;;;4.97;;
85087;SDS011;75429;48.374;11.934;2024-01-15T03:07:31;11.15;;;5.43;;
85087;SDS011;75429;48.374;11.934;2024-01-15T03:09:31;9.52;;;5.30;;
85087;SDS011;75429;48.374;11.934;2024-01-15T03:11:38;14.40;;;5.22;;
85087;SDS011;75429;48.374;11.934;2024-01-15T03:13:39;13.32;;;6.38;;
85087;SDS011;75429;48.374;11.934;2024-01-15T03:15:39;15.65;;;5.57;;
85087;SDS011;75429;48.374;11.934;2024-01-15T03:17:41;13.50;;;5.15;;
85087;SDS011;75429;48.374;11.934;2024-01-15T03:19:42;14.32;;;5.90;;
85087;SDS011;75429;48.374;11.934;2024-01-15T03:21:42;8.18;;;4.05;;
85087;SDS011;75429;48.374;11.934;2024-01-15T03:23:43;11.40;;;4.68;;
85087;SDS011;75429;48.374;11.934;2024-01-15T03:25:43;11.38;;;5.43;;
85087;SDS011;75429;48.374;11.934;2024-01-15T03:27:44;12.82;;;5.85;;
85087;SDS011;75429;48.374;11.934;2024-01-15T03:29:44;12.60;;;5.20;;
85087;SDS011;75429;48.374;11.934;2024-01-15T03:31:45;14.63;;;5.90;;
85087;SDS011;75429;48.374;11.934;2024-01-15T03:33:45;12.02;;;5.57;;
85087;SDS011;75429;48.374;11.934;2024-01-15T03:35:45;14.25;;;6.07;;
85087;SDS011;75429;48.374;11.934;2024-01-15T03:37:46;12.45;;;5.75;;
85087;SDS011;75429;48.374;11.934;2024-01-15T03:39:49;15.55;;;6.65;;
85087;SDS011;75429;48.374;11.934;2024-01-15T03:41:49;12.35;;;4.70;;
85087;SDS011;75429;48.374;11.934;2024-01-15T03:43:49;10.63;;;5.63;;
85087;SDS011;75429;48.374;11.934;2024-01-15T03:45:50;9.52;;;4.32;;
85087;SDS011;75429;48.374;11.934;2024-01-15T03:47:50;14.65;;;5.95;;
85087;SDS011;75429;48.374;11.934;2024-01-15T03:49:51;12.80;;;6.80;;
85087;SDS011;75429;48.374;11.934;2024-01-15T03:51:51;10.48;;;4.68;;
85087;SDS011;75429;48.374;11.934;2024-01-15T03:53:51;11.77;;;4.95;;
85087;SDS011;75429;48.374;11.934;2024-01-15T03:55:52;9.85;;;4.55;;
85087;SDS011;75429;48.374;11.934;2024-01-15T03:57:52;11.27;;;5.28;;
85087;SDS011;75429;48.374;11.934;2024-01-15T03:59:52;12.05;;;5.47;;
85087;SDS011;75429;48.374;11.934;2024-01-15T04:01:53;10.43;;;4.15;;
85087;SDS011;75429;48.374;11.934;2024-01-15T04:03:53;12.57;;;5.30;;
85087;SDS011;75429;48.374;11.934;2024-01-15T04:05:54;25.08;;;8.48;;
85087;SDS011;75429;48.374;11.934;2024-01-15T04:07:54;9.60;;;4.25;;
85087;SDS011;75429;48.374;11.934;2024-01-15T04:09:55;8.98;;;4.60;;
85087;SDS011;75429;48.374;11.934;2024-01-15T04:11:55;11.30;;;4.55;;
85087;SDS011;75429;48.374;11.934;2024-01-15T04:13:55;8.48;;;4.20;;
85087;SDS011;75429;48.374;11.934;2024-01-15T04:15:56;12.10;;;4.55;;
85087;SDS011;75429;48.374;11.934;2024-01-15T04:17:56;9.98;;;4.70;;
85087;SDS011;75429;48.374;11.934;2024-01-15T04:19:57;8.07;;;4.88;;
85087;SDS011;75429;48.374;11.934;2024-01-15T04:21:57;7.68;;;4.28;;
85087;SDS011;75429;48.374;11.934;2024-01-15T04:23:57;9.18;;;4.30;;
85087;SDS011;75429;48.374;11.934;2024-01-15T04:25:58;14.50;;;4.97;;
85087;SDS011;75429;48.374;11.934;2024-01-15T04:27:58;10.07;;;4.80;;
85087;SDS011;75429;48.374;11.934;2024-01-15T04:29:58;8.23;;;4.03;;
85087;SDS011;75429;48.374;11.934;2024-01-15T04:31:59;8.55;;;4.47;;
85087;SDS011;75429;48.374;11.934;2024-01-15T04:33:59;8.07;;;3.58;;
85087;SDS011;75429;48.374;11.934;2024-01-15T04:36:03;10.35;;;4.75;;
85087;SDS011;75429;48.374;11.934;2024-01-15T04:38:05;8.75;;;4.03;;
85087;SDS011;75429;48.374;11.934;2024-01-15T04:40:06;9.10;;;4.45;;
85087;SDS011;75429;48.374;11.934;2024-01-15T04:42:07;8.18;;;3.80;;
85087;SDS011;75429;48.374;11.934;2024-01-15T04:44:07;9.50;;;5.05;;
85087;SDS011;75429;48.374;11.934;2024-01-15T04:46:08;11.23;;;4.75;;
85087;SDS011;75429;48.374;11.934;2024-01-15T04:48:08;10.68;;;4.53;;
85087;SDS011;75429;48.374;11.934;2024-01-15T04:50:08;8.70;;;4.32;;
85087;SDS011;75429;48.374;11.934;2024-01-15T04:52:09;7.90;;;3.90;;
85087;SDS011;75429;48.374;11.934;2024-01-15T04:54:10;9.50;;;3.72;;
85087;SDS011;75429;48.374;11.934;2024-01-15T04:56:11;9.15;;;4.60;;
85087;SDS011;75429;48.374;11.934;2024-01-15T04:58:11;8.15;;;3.70;;
85087;SDS011;75429;48.374;11.934;2024-01-15T05:00:12;10.18;;;4.72;;
85087;SDS011;75429;48.374;11.934;2024-01-15T05:02:13;9.18;;;4.45;;
85087;SDS011;75429;48.374;11.934;2024-01-15T05:04:13;6.28;;;3.28;;
85087;SDS011;75429;48.374;11.934;2024-01-15T05:06:13;8.93;;;3.70;;
85087;SDS011;75429;48.374;11.934;2024-01-15T05:08:14;9.20;;;4.07;;
85087;SDS011;75429;48.374;11.934;2024-01-15T05:10:14;8.38;;;4.20;;
85087;SDS011;75429;48.374;11.934;2024-01-15T05:12:14;10.38;;;3.78;;
85087;SDS011;75429;48.374;11.934;2024-01-15T05:14:15;8.65;;;4.00;;
85087;SDS011;75429;48.374;11.934;2024-01-15T05:16:15;9.45;;;4.63;;
85087;SDS011;75429;48.374;11.934;2024-01-15T05:18:16;8.95;;;3.83;;
85087;SDS011;75429;48.374;11.934;2024-01-15T05:20:17;6.82;;;3.92;;
85087;SDS011;75429;48.374;11.934;2024-01-15T05:22:17;13.98;;;6.57;;
85087;SDS011;75429;48.374;11.934;2024-01-15T05:24:17;19.92;;;7.82;;
85087;SDS011;75429;48.374;11.934;2024-01-15T05:26:18;39.42;;;13.52;;
85087;SDS011;75429;48.374;11.934;2024-01-15T05:28:18;10.57;;;5.72;;
85087;SDS011;75429;48.374;11.934;2024-01-15T05:30:18;10.18;;;4.07;;
85087;SDS011;75429;48.374;11.934;2024-01-15T05:32:19;8.50;;;4.30;;
85087;SDS011;75429;48.374;11.934;2024-01-15T05:34:19;7.65;;;3.20;;
85087;SDS011;75429;48.374;11.934;2024-01-15T05:36:19;8.68;;;3.65;;
85087;SDS011;75429;48.374;11.934;2024-01-15T05:38:20;8.50;;;4.38;;
85087;SDS011;75429;48.374;11.934;2024-01-15T05:40:20;8.30;;;4.13;;
85087;SDS011;75429;48.374;11.934;2024-01-15T05:42:20;8.43;;;3.95;;
85087;SDS011;75429;48.374;11.934;2024-01-15T05:44:21;9.68;;;4.63;;
85087;SDS011;75429;48.374;11.934;2024-01-15T05:46:21;8.18;;;3.92;;
85087;SDS011;75429;48.374;11.934;2024-01-15T05:48:21;6.88;;;3.58;;
85087;SDS011;75429;48.374;11.934;2024-01-15T05:50:22;8.60;;;4.22;;
85087;SDS011;75429;48.374;11.934;2024-01-15T05:52:22;9.27;;;3.88;;
85087;SDS011;75429;48.374;11.934;2024-01-15T05:54:23;7.20;;;2.95;;
85087;SDS011;75429;48.374;11.934;2024-01-15T05:56:23;8.05;;;3.85;;
85087;SDS011;75429;48.374;11.934;2024-01-15T05:58:24;11.82;;;4.85;;
85087;SDS011;75429;48.374;11.934;2024-01-15T06:00:24;10.82;;;4.53;;
85087;SDS011;75429;48.374;11.934;2024-01-15T06:02:25;8.05;;;4.60;;
85087;SDS011;75429;48.374;11.934;2024-01-15T06:04:25;9.60;;;4.63;;
85087;SDS011;75429;48.374;11.934;2024-01-15T06:06:25;9.02;;;3.90;;
85087;SDS011;75429;48.374;11.934;2024-01-15T06:08:26;9.15;;;4.60;;
85087;SDS011;75429;48.374;11.934;2024-01-15T06:10:27;8.20;;;3.63;;
85087;SDS011;75429;48.374;11.934;2024-01-15T06:12:28;9.65;;;4.85;;
85087;SDS011;75429;48.374;11.934;2024-01-15T06:14:28;9.65;;;4.28;;
85087;SDS011;75429;48.374;11.934;2024-01-15T06:16:28;7.50;;;3.60;;
85087;SDS011;75429;48.374;11.934;2024-01-15T06:18:29;8.63;;;4.18;;
85087;SDS011;75429;48.374;11.934;2024-01-15T06:20:29;8.15;;;3.83;;
85087;SDS011;75429;48.374;11.934;2024-01-15T06:22:30;9.40;;;4.57;;
85087;SDS011;75429;48.374;11.934;2024-01-15T06:24:30;6.03;;;3.40;;
85087;SDS011;75429;48.374;11.934;2024-01-15T06:26:30;7.78;;;3.90;;
85087;SDS011;75429;48.374;11.934;2024-01-15T06:28:31;9.40;;;4.18;;
85087;SDS011;75429;48.374;11.934;2024-01-15T06:30:31;9.75;;;4.47;;
85087;SDS011;75429;48.374;11.934;2024-01-15T06:32:31;9.43;;;3.85;;
85087;SDS011;75429;48.374;11.934;2024-01-15T06:34:32;7.03;;;4.00;;
85087;SDS011;75429;48.374;11.934;2024-01-15T06:36:32;10.48;;;3.90;;
85087;SDS011;75429;48.374;11.934;2024-01-15T06:38:32;7.88;;;3.80;;
85087;SDS011;75429;48.374;11.934;2024-01-15T06:40:33;6.53;;;3.78;;
85087;SDS011;75429;48.374;11.934;2024-01-15T06:42:33;8.63;;;4.28;;
85087;SDS011;75429;48.374;11.934;2024-01-15T06:44:33;7.78;;;3.90;;
85087;SDS011;75429;48.374;11.934;2024-01-15T06:46:34;8.80;;;3.42;;
85087;SDS011;75429;48.374;11.934;2024-01-15T06:48:34;9.13;;;4.65;;
85087;SDS011;75429;48.374;11.934;2024-01-15T06:50:35;8.93;;;4.45;;
85087;SDS011;75429;48.374;11.934;2024-01-15T06:52:38;10.90;;;3.72;;
85087;SDS011;75429;48.374;11.934;2024-01-15T06:54:39;8.30;;;3.90;;
85087;SDS011;75429;48.374;11.934;2024-01-15T06:56:39;6.18;;;3.45;;
85087;SDS011;75429;48.374;11.934;2024-01-15T06:58:40;7.88;;;4.38;;
85087;SDS011;75429;48.374;11.934;2024-01-15T07:00:40;6.78;;;3.28;;
85087;SDS011;75429;48.374;11.934;2024-01-15T07:02:40;6.70;;;3.38;;
85087;SDS011;75429;48.374;11.934;2024-01-15T07:04:41;9.05;;;4.18;;
85087;SDS011;75429;48.374;11.934;2024-01-15T07:06:41;7.57;;;3.92;;
85087;SDS011;75429;48.374;11.934;2024-01-15T07:08:42;8.70;;;3.95;;
85087;SDS011;75429;48.374;11.934;2024-01-15T07:10:42;7.13;;;3.70;;
85087;SDS011;75429;48.374;11.934;2024-01-15T07:12:43;7.75;;;4.03;;
85087;SDS011;75429;48.374;11.934;2024-01-15T07:14:44;8.25;;;4.38;;
85087;SDS011;75429;48.374;11.934;2024-01-15T07:16:44;7.90;;;3.70;;
85087;SDS011;75429;48.374;11.934;2024-01-15T07:18:44;6.82;;;2.83;;
85087;SDS011;75429;48.374;11.934;2024-01-15T07:20:45;8.10;;;4.50;;
85087;SDS011;75429;48.374;11.934;2024-01-15T07:22:45;7.15;;;3.28;;
85087;SDS011;75429;48.374;11.934;2024-01-15T07:24:45;7.53;;;3.58;;
85087;SDS011;75429;48.374;11.934;2024-01-15T07:26:46;5.70;;;3.40;;
85087;SDS011;75429;48.374;11.934;2024-01-15T07:28:46;9.25;;;4.07;;
85087;SDS011;75429;48.374;11.934;2024-01-15T07:30:47;7.55;;;3.63;;
85087;SDS011;75429;48.374;11.934;2024-01-15T07:32:47;7.15;;;3.50;;
85087;SDS011;75429;48.374;11.934;2024-01-15T07:34:48;7.35;;;3.30;;
85087;SDS011;75429;48.374;11.934;2024-01-15T07:36:49;8.98;;;3.47;;
85087;SDS011;75429;48.374;11.934;2024-01-15T07:38:49;5.43;;;3.58;;
85087;SDS011;75429;48.374;11.934;2024-01-15T07:40:50;7.45;;;3.97;;
85087;SDS011;75429;48.374;11.934;2024-01-15T07:42:50;5.45;;;3.03;;
85087;SDS011;75429;48.374;11.934;2024-01-15T07:44:51;7.45;;;3.70;;
85087;SDS011;75429;48.374;11.934;2024-01-15T07:46:52;6.63;;;3.78;;
85087;SDS011;75429;48.374;11.934;2024-01-15T07:48:52;9.10;;;4.00;;
85087;SDS011;75429;48.374;11.934;2024-01-15T07:50:56;7.15;;;3.78;;
85087;SDS011;75429;48.374;11.934;2024-01-15T07:52:56;6.68;;;3.83;;
85087;SDS011;75429;48.374;11.934;2024-01-15T07:54:56;7.70;;;3.40;;
85087;SDS011;75429;48.374;11.934;2024-01-15T07:57:00;8.15;;;3.13;;
85087;SDS011;75429;48.374;11.934;2024-01-15T07:59:01;6.32;;;3.50;;
85087;SDS011;75429;48.374;11.934;2024-01-15T08:01:01;7.82;;;3.40;;
85087;SDS011;75429;48.374;11.934;2024-01-15T08:03:01;5.97;;;2.78;;
85087;SDS011;75429;48.374;11.934;2024-01-15T08:05:02;7.10;;;3.50;;
85087;SDS011;75429;48.374;11.934;2024-01-15T08:07:03;6.60;;;3.10;;
85087;SDS011;75429;48.374;11.934;2024-01-15T08:09:04;7.97;;;3.60;;
85087;SDS011;75429;48.374;11.934;2024-01-15T08:11:04;8.95;;;3.53;;
85087;SDS011;75429;48.374;11.934;2024-01-15T08:13:05;5.88;;;3.15;;
85087;SDS011;75429;48.374;11.934;2024-01-15T08:15:07;5.43;;;2.72;;
85087;SDS011;75429;48.374;11.934;2024-01-15T08:17:08;5.93;;;3.38;;
85087;SDS011;75429;48.374;11.934;2024-01-15T08:19:08;6.57;;;3.08;;
85087;SDS011;75429;48.374;11.934;2024-01-15T08:21:08;7.38;;;3.03;;
85087;SDS011;75429;48.374;11.934;2024-01-15T08:23:09;13.35;;;8.23;;
85087;SDS011;75429;48.374;11.934;2024-01-15T08:25:09;13.43;;;6.35;;
85087;SDS011;75429;48.374;11.934;2024-01-15T08:27:10;7.22;;;3.95;;
85087;SDS011;75429;48.374;11.934;2024-01-15T08:29:10;7.40;;;3.70;;
85087;SDS011;75429;48.374;11.934;2024-01-15T08:31:11;9.43;;;4.25;;
85087;SDS011;75429;48.374;11.934;2024-01-15T08:33:11;9.70;;;5.05;;
85087;SDS011;75429;48.374;11.934;2024-01-15T08:35:11;8.57;;;3.92;;
85087;SDS011;75429;48.374;11.934;2024-01-15T08:37:12;6.28;;;3.75;;
85087;SDS011;75429;48.374;11.934;2024-01-15T08:39:12;8.40;;;3.80;;
85087;SDS011;75429;48.374;11.934;2024-01-15T08:41:13;6.32;;;2.97;;
85087;SDS011;75429;48.374;11.934;2024-01-15T08:43:13;7.72;;;3.78;;
85087;SDS011;75429;48.374;11.934;2024-01-15T08:45:13;7.40;;;3.50;;
85087;SDS011;75429;48.374;11.934;2024-01-15T08:47:14;7.88;;;3.15;;
85087;SDS011;75429;48.374;11.934;2024-01-15T08:49:14;6.57;;;3.40;;
85087;SDS011;75429;48.374;11.934;2024-01-15T08:51:14;5.53;;;3.67;;
85087;SDS011;75429;48.374;11.934;2024-01-15T08:53:15;3.25;;;2.58;;
85087;SDS011;75429;48.374;11.934;2024-01-15T08:55:15;5.47;;;2.50;;
85087;SDS011;75429;48.374;11.934;2024-01-15T08:57:19;6.20;;;3.25;;
85087;SDS011;75429;48.374;11.934;2024-01-15T08:59:19;5.28;;;3.00;;
85087;SDS011;75429;48.374;11.934;2024-01-15T09:01:24;7.43;;;3.50;;
85087;SDS011;75429;48.374;11.934;2024-01-15T09:03:25;5.30;;;2.92;;
85087;SDS011;75429;48.374;11.934;2024-01-15T09:05:25;6.35;;;3.05;;
85087;SDS011;75429;48.374;11.934;2024-01-15T09:07:26;7.50;;;3.40;;
85087;SDS011;75429;48.374;11.934;2024-01-15T09:09:26;7.10;;;3.53;;
85087;SDS011;75429;48.374;11.934;2024-01-15T09:11:27;4.70;;;2.75;;
85087;SDS011;75429;48.374;11.934;2024-01-15T09:13:27;3.97;;;3.08;;
85087;SDS011;75429;48.374;11.934;2024-01-15T09:15:28;5.38;;;3.28;;
85087;SDS011;75429;48.374;11.934;2024-01-15T09:17:28;5.97;;;3.42;;
85087;SDS011;75429;48.374;11.934;2024-01-15T09:19:29;7.15;;;3.42;;
85087;SDS011;75429;48.374;11.934;2024-01-15T09:21:29;6.68;;;3.08;;
85087;SDS011;75429;48.374;11.934;2024-01-15T09:23:29;6.47;;;3.38;;
85087;SDS011;75429;48.374;11.934;2024-01-15T09:25:30;9.40;;;3.53;;
85087;SDS011;75429;48.374;11.934;2024-01-15T09:27:30;6.78;;;4.25;;
85087;SDS011;75429;48.374;11.934;2024-01-15T09:29:30;8.02;;;3.55;;
85087;SDS011;75429;48.374;11.934;2024-01-15T09:31:31;4.70;;;2.72;;
85087;SDS011;75429;48.374;11.934;2024-01-15T09:33:32;5.38;;;3.13;;
85087;SDS011;75429;48.374;11.934;2024-01-15T09:35:32;5.47;;;3.35;;
85087;SDS011;75429;48.374;11.934;2024-01-15T09:37:33;5.28;;;3.42;;
85087;SDS011;75429;48.374;11.934;2024-01-15T09:39:33;5.82;;;3.33;;
85087;SDS011;75429;48.374;11.934;2024-01-15T09:41:34;4.00;;;2.47;;
85087;SDS011;75429;48.374;11.934;2024-01-15T09:43:36;4.15;;;2.38;;
85087;SDS011;75429;48.374;11.934;2024-01-15T09:45:37;3.75;;;3.03;;
85087;SDS011;75429;48.374;11.934;2024-01-15T09:47:38;3.92;;;2.33;;
85087;SDS011;75429;48.374;11.934;2024-01-15T09:49:38;5.07;;;3.10;;
85087;SDS011;75429;48.374;11.934;2024-01-15T09:51:41;6.80;;;2.90;;
85087;SDS011;75429;48.374;11.934;2024-01-15T09:53:42;5.20;;;2.60;;
85087;SDS011;75429;48.374;11.934;2024-01-15T09:55:43;4.57;;;2.38;;
85087;SDS011;75429;48.374;11.934;2024-01-15T09:57:44;5.32;;;2.45;;
85087;SDS011;75429;48.374;11.934;2024-01-15T09:59:45;4.28;;;2.63;;
85087;SDS011;75429;48.374;11.934;2024-01-15T10:01:47;3.80;;;2.60;;
85087;SDS011;75429;48.374;11.934;2024-01-15T10:03:48;6.38;;;2.72;;
85087;SDS011;75429;48.374;11.934;2024-01-15T10:05:48;5.72;;;3.75;;
85087;SDS011;75429;48.374;11.934;2024-01-15T10:07:49;5.82;;;2.63;;
85087;SDS011;75429;48.374;11.934;2024-01-15T10:09:50;8.57;;;3.67;;
85087;SDS011;75429;48.374;11.934;2024-01-15T10:11:50;9.60;;;3.03;;
85087;SDS011;75429;48.374;11.934;2024-01-15T10:13:50;6.85;;;3.38;;
85087;SDS011;75429;48.374;11.934;2024-01-15T10:15:53;9.93;;;5.18;;
85087;SDS011;75429;48.374;11.934;2024-01-15T10:17:54;6.82;;;3.10;;
85087;SDS011;75429;48.374;11.934;2024-01-15T10:19:54;8.52;;;4.32;;
85087;SDS011;75429;48.374;11.934;2024-01-15T10:21:55;9.43;;;4.25;;
85087;SDS011;75429;48.374;11.934;2024-01-15T10:23:55;8.32;;;3.42;;
85087;SDS011;75429;48.374;11.934;2024-01-15T10:25:56;8.75;;;3.20;;
85087;SDS011;75429;48.374;11.934;2024-01-15T10:28:03;9.35;;;3.90;;
85087;SDS011;75429;48.374;11.934;2024-01-15T10:30:04;6.03;;;3.60;;
85087;SDS011;75429;48.374;11.934;2024-01-15T10:32:06;6.57;;;3.50;;
85087;SDS011;75429;48.374;11.934;2024-01-15T10:34:11;6.55;;;3.17;;
85087;SDS011;75429;48.374;11.934;2024-01-15T10:36:12;6.53;;;4.00;;
85087;SDS011;75429;48.374;11.934;2024-01-15T10:38:13;9.93;;;3.53;;
85087;SDS011;75429;48.374;11.934;2024-01-15T10:40:14;9.38;;;4.20;;
85087;SDS011;75429;48.374;11.934;2024-01-15T10:42:14;6.70;;;2.97;;
85087;SDS011;75429;48.374;11.934;2024-01-15T10:44:15;9.88;;;3.47;;
85087;SDS011;75429;48.374;11.934;2024-01-15T10:46:15;7.13;;;3.25;;
85087;SDS011;75429;48.374;11.934;2024-01-15T10:48:17;5.25;;;3.10;;
85087;SDS011;75429;48.374;11.934;2024-01-15T10:50:19;6.97;;;3.15;;
85087;SDS011;75429;48.374;11.934;2024-01-15T10:52:21;7.82;;;3.97;;
85087;SDS011;75429;48.374;11.934;2024-01-15T10:54:21;5.95;;;3.75;;
85087;SDS011;75429;48.374;11.934;2024-01-15T10:56:23;7.00;;;3.13;;
85087;SDS011;75429;48.374;11.934;2024-01-15T10:58:24;8.30;;;4.03;;
85087;SDS011;75429;48.374;11.934;2024-01-15T11:00:27;6.45;;;3.38;;
85087;SDS011;75429;48.374;11.934;2024-01-15T11:02:28;7.35;;;3.55;;
85087;SDS011;75429;48.374;11.934;2024-01-15T11:04:28;6.10;;;2.97;;
85087;SDS011;75429;48.374;11.934;2024-01-15T11:06:40;6.32;;;3.42;;
85087;SDS011;75429;48.374;11.934;2024-01-15T11:08:42;6.32;;;2.83;;
85087;SDS011;75429;48.374;11.934;2024-01-15T11:10:44;4.35;;;2.97;;
85087;SDS011;75429;48.374;11.934;2024-01-15T11:12:52;9.52;;;3.47;;
85087;SDS011;75429;48.374;11.934;2024-01-15T11:14:52;4.65;;;2.60;;
85087;SDS011;75429;48.374;11.934;2024-01-15T11:17:04;8.50;;;4.40;;
85087;SDS011;75429;48.374;11.934;2024-01-15T11:19:05;7.18;;;3.25;;
85087;SDS011;75429;48.374;11.934;2024-01-15T11:23:41;7.57;;;3.65;;
85087;SDS011;75429;48.374;11.934;2024-01-15T11:25:47;6.10;;;2.70;;
85087;SDS011;75429;48.374;11.934;2024-01-15T11:27:49;9.50;;;3.83;;
85087;SDS011;75429;48.374;11.934;2024-01-15T11:30:13;5.43;;;3.10;;
85087;SDS011;75429;48.374;11.934;2024-01-15T11:32:14;9.20;;;4.70;;
85087;SDS011;75429;48.374;11.934;2024-01-15T11:34:15;4.80;;;2.63;;
85087;SDS011;75429;48.374;11.934;2024-01-15T11:36:15;3.28;;;2.50;;
85087;SDS011;75429;48.374;11.934;2024-01-15T11:38:33;3.97;;;3.00;;
85087;SDS011;75429;48.374;11.934;2024-01-15T11:42:34;5.47;;;2.77;;
85087;SDS011;75429;48.374;11.934;2024-01-15T11:44:34;4.72;;;3.13;;
85087;SDS011;75429;48.374;11.934;2024-01-15T11:46:35;3.42;;;2.30;;
85087;SDS011;75429;48.374;11.934;2024-01-15T11:48:44;2.97;;;2.08;;
85087;SDS011;75429;48.374;11.934;2024-01-15T11:50:48;3.65;;;2.15;;
85087;SDS011;75429;48.374;11.934;2024-01-15T11:53:13;5.60;;;2.80;;
85087;SDS011;75429;48.374;11.934;2024-01-15T11:57:19;3.25;;;2.13;;
85087;SDS011;75429;48.374;11.934;2024-01-15T11:59:24;4.90;;;2.88;;